»·PEaware :: SWA295 KBOI-KPDX

SWA295 :: KBOI-KPDX

FLIGHT INFORMATION

Flight Status: Arrived
Operator:
Southwest Airlines
More flights by this operator :: More flights under this callsign
Pilot: Kai J. (30449)
Aircraft: BOEING 737-800
(B738)
More flights by this aircraft type
Origin: KBOI Boise Air Terminal/Gowen
United States
Destination: KPDX Portland Intl
United States
More flights between these airports :: More routes between these airports
Route: SAILL BUEEL IMB RABBI HHOOD4
File this flight plan on PilotEdge
Remarks:
Altitude:
(Current/Filed)
34,000ft
Speed:
(Current/Filed)
450kts
Departed: 16-Jul-20 06:06 PM
Arrived: 16-Jul-20 07:03 PM
Distance/Time
Traveled:
298nm/0:57
Distance/Time
To Go:
Arrived

Flight Plot

Page will automatically refresh every two minutes.


Map Options




Map Legend


Flown Route
Filed Route
Departure Airport
Arrival Airport
Navaid (VOR, NDB)
Fix

Horizontal Profiles

Position Reports

Time Latitude Longitude Heading Altitude Ground
Speed
16-Jul-20 17:22 43.566921 -116.219874 29 2856ft 0kts
16-Jul-20 17:22 43.566921 -116.219874 29 2856ft 0kts
16-Jul-20 17:24 43.566921 -116.219874 29 2856ft 0kts
16-Jul-20 17:25 43.566921 -116.219874 29 2856ft 0kts
16-Jul-20 17:25 43.566921 -116.219874 29 2856ft 0kts
16-Jul-20 17:26 43.566921 -116.219874 29 2856ft 0kts
16-Jul-20 17:28 43.566921 -116.219874 29 2856ft 0kts
16-Jul-20 17:28 43.566921 -116.219874 29 2856ft 0kts
16-Jul-20 17:37 43.566921 -116.219874 29 2856ft 0kts
16-Jul-20 17:38 43.566921 -116.219874 29 2856ft 0kts
16-Jul-20 17:39 43.566921 -116.219874 29 2856ft 0kts
16-Jul-20 17:40 43.566921 -116.219874 29 2856ft 0kts
16-Jul-20 17:41 43.566921 -116.219874 29 2856ft 0kts
16-Jul-20 17:42 43.566921 -116.219874 29 2856ft 0kts
16-Jul-20 17:43 43.566921 -116.219874 29 2856ft 0kts
16-Jul-20 17:44 43.566921 -116.219874 29 2856ft 0kts
16-Jul-20 17:45 43.566921 -116.219874 29 2856ft 0kts
16-Jul-20 17:46 43.566921 -116.219874 29 2856ft 0kts
16-Jul-20 17:47 43.566921 -116.219874 29 2856ft 0kts
16-Jul-20 17:48 43.566921 -116.219874 29 2856ft 0kts
16-Jul-20 17:49 43.566921 -116.219874 29 2856ft 0kts
16-Jul-20 17:50 43.566921 -116.219874 29 2856ft 0kts
16-Jul-20 17:51 43.566921 -116.219874 29 2856ft 0kts
16-Jul-20 17:52 43.566921 -116.219874 29 2856ft 0kts
16-Jul-20 17:53 43.566920 -116.219874 29 2856ft 0kts
16-Jul-20 17:54 43.566629 -116.220101 29 2856ft 2kts
16-Jul-20 17:55 43.566296 -116.220031 294 2856ft 0kts
16-Jul-20 17:56 43.566296 -116.220031 294 2856ft 0kts
16-Jul-20 17:57 43.566311 -116.220076 294 2856ft 1kts
16-Jul-20 17:58 43.566273 -116.222018 294 2854ft 13kts
16-Jul-20 17:59 43.568502 -116.228543 295 2847ft 22kts
16-Jul-20 18:00 43.570557 -116.234571 295 2837ft 11kts
16-Jul-20 18:01 43.570980 -116.236162 258 2835ft 2kts
16-Jul-20 18:02 43.570076 -116.236704 117 2834ft 0kts
16-Jul-20 18:03 43.570076 -116.236703 117 2834ft 0kts
16-Jul-20 18:04 43.569893 -116.236210 116 2835ft 28kts
16-Jul-20 18:05 43.553391 -116.186042 106 4010ft 194kts
16-Jul-20 18:06 43.528188 -116.102322 111 5775ft 285kts
16-Jul-20 18:07 43.487231 -116.008801 159 9167ft 300kts
16-Jul-20 18:08 43.422470 -116.060526 267 11125ft 339kts
16-Jul-20 18:09 43.452079 -116.185252 291 14105ft 354kts
16-Jul-20 18:10 43.490047 -116.312893 290 17033ft 367kts
16-Jul-20 18:11 43.529107 -116.444988 289 19682ft 381kts
16-Jul-20 18:12 43.569658 -116.582246 289 22115ft 393kts
16-Jul-20 18:13 43.611402 -116.723718 289 24308ft 406kts
16-Jul-20 18:14 43.654564 -116.870177 290 26305ft 418kts
16-Jul-20 18:15 43.699013 -117.020900 291 28149ft 429kts
16-Jul-20 18:16 43.745592 -117.174659 294 29898ft 438kts
16-Jul-20 18:17 43.794159 -117.327882 294 32097ft 431kts
16-Jul-20 18:18 43.841408 -117.478099 294 33892ft 426kts
16-Jul-20 18:19 43.890522 -117.628287 298 33936ft 424kts
16-Jul-20 18:20 43.944716 -117.773068 298 33936ft 424kts
16-Jul-20 18:21 43.999347 -117.918503 298 33957ft 424kts
16-Jul-20 18:22 44.053745 -118.063798 298 34012ft 424kts
16-Jul-20 18:23 44.108046 -118.209508 298 34027ft 424kts
16-Jul-20 18:24 44.162112 -118.355322 298 34027ft 422kts
16-Jul-20 18:25 44.215786 -118.500812 298 34027ft 422kts
16-Jul-20 18:26 44.269032 -118.646303 298 34027ft 420kts
16-Jul-20 18:27 44.321901 -118.791136 297 34027ft 419kts
16-Jul-20 18:28 44.374661 -118.936270 297 34023ft 418kts
16-Jul-20 18:29 44.427120 -119.081368 297 34014ft 418kts
16-Jul-20 18:30 44.479249 -119.226317 297 34002ft 417kts
16-Jul-20 18:31 44.531260 -119.371658 297 34000ft 417kts
16-Jul-20 18:32 44.583120 -119.516711 297 33999ft 417kts
16-Jul-20 18:33 44.635139 -119.661409 300 34000ft 416kts
16-Jul-20 18:34 44.704111 -119.791545 309 34000ft 416kts
16-Jul-20 18:35 44.780518 -119.913851 311 33999ft 416kts
16-Jul-20 18:36 44.857806 -120.034470 311 34000ft 414kts
16-Jul-20 18:37 44.935435 -120.155303 311 32200ft 419kts
16-Jul-20 18:38 45.013285 -120.276786 310 29127ft 409kts
16-Jul-20 18:39 45.087724 -120.393500 310 26660ft 393kts
16-Jul-20 18:40 45.159005 -120.511235 303 24142ft 389kts
16-Jul-20 18:41 45.213954 -120.642433 297 23954ft 391kts
16-Jul-20 18:42 45.266100 -120.777010 297 23954ft 388kts
16-Jul-20 18:43 45.316655 -120.908422 296 22298ft 371kts
16-Jul-20 18:44 45.364867 -121.034465 296 20022ft 360kts
16-Jul-20 18:45 45.412157 -121.159570 295 17755ft 353kts
16-Jul-20 18:46 45.445366 -121.286619 283 15526ft 336kts
16-Jul-20 18:47 45.470109 -121.412870 284 13907ft 308kts
16-Jul-20 18:48 45.493003 -121.529002 284 12203ft 311kts
16-Jul-20 18:49 45.515933 -121.645344 285 10397ft 300kts
16-Jul-20 18:50 45.531274 -121.754706 273 9490ft 270kts
16-Jul-20 18:51 45.534787 -121.861004 273 8110ft 266kts
16-Jul-20 18:52 45.538443 -121.963244 274 7059ft 237kts
16-Jul-20 18:53 45.535148 -122.051124 250 6672ft 226kts
16-Jul-20 18:54 45.499528 -122.127286 237 6197ft 231kts
16-Jul-20 18:55 45.472467 -122.205666 267 4929ft 218kts
16-Jul-20 18:56 45.471946 -122.291483 270 3748ft 215kts
16-Jul-20 18:57 45.493841 -122.364100 300 3501ft 185kts
16-Jul-20 18:58 45.518965 -122.426806 299 2540ft 181kts
16-Jul-20 19:00 45.541067 -122.483058 300 1649ft 143kts
16-Jul-20 19:01 45.560134 -122.531814 301 886ft 137kts
16-Jul-20 19:02 45.578394 -122.578461 301 145ft 132kts
16-Jul-20 19:03 45.589591 -122.607129 299 32ft 36kts
16-Jul-20 19:04 45.593200 -122.613010 35 32ft 0kts
16-Jul-20 19:05 45.593340 -122.612010 115 32ft 12kts
16-Jul-20 19:06 45.590851 -122.605913 133 32ft 22kts
16-Jul-20 19:07 45.589512 -122.602114 36 32ft 6kts
16-Jul-20 19:08 45.590200 -122.600116 121 32ft 0kts

Navigation Log

Ident Type
Flight plan parsing failed, navigation log unavailable